Data for 04/07/2015

Time Sea-Level Adjusted Pressure Absolute Pressure Temperature Relative Humidity Dew Point   
(mb) (inHg) (mb) (inHg) (C) (F) (%) (C) (F)
00:05 1015 29.97 844 24.92 -1.4 29.4 93 -2.4 27.6
00:10 1015 29.97 844 24.92 -1.4 29.5 93 -2.4 27.7
00:15 1015 29.97 844 24.92 -1.5 29.4 93 -2.5 27.6
00:20 1015 29.97 844 24.92 -1.5 29.3 93 -2.5 27.5
00:25 1015 29.97 844 24.92 -1.6 29.2 93 -2.6 27.4
00:30 1015 29.97 844 24.92 -1.7 28.9 93 -2.7 27.1
00:35 1015 29.97 844 24.92 -1.8 28.7 93 -2.8 27
00:40 1015 29.97 844 24.92 -2.2 28.1 93 -3.2 26.2
00:45 1015 29.97 844 24.92 -2.4 27.6 94 -3.3 26.1
00:50 1015 29.97 844 24.92 -2.2 28 94 -3.1 26.5
00:55 1015 29.97 844 24.92 -2.1 28.3 93 -3.1 26.5
01:00 1015 29.97 844 24.92 -2.3 27.9 92 -3.4 25.9
01:05 1015 29.97 844 24.92 -2.6 27.4 92 -3.7 25.3
01:10 1015 29.97 844 24.92 -2.6 27.3 92 -3.8 25.2
01:15 1015 29.97 844 24.92 -2.5 27.5 90 -3.9 25
01:20 1015 29.97 844 24.92 -2.5 27.5 87 -4.4 24.1
01:25 1015 29.97 844 24.92 -2.8 27 87 -4.6 23.7
01:30 1015 29.97 844 24.92 -3.2 26.2 89 -4.9 23.3
01:35 1015 29.97 844 24.92 -3.4 26 90 -4.8 23.3
01:40 1015 29.97 844 24.92 -2.9 26.8 88 -4.6 23.8
01:45 1015 29.97 844 24.92 -3.1 26.4 89 -4.7 23.6
01:50 1015 29.97 844 24.92 -3.3 26.1 89 -4.8 23.3
01:55 1015 29.97 844 24.92 -3.3 26.1 89 -4.8 23.4
02:00 1015 29.97 844 24.92 -3.3 26 90 -4.8 23.4
02:05 1015 29.97 844 24.92 -3.5 25.8 90 -4.9 23.2
02:10 1015 29.97 844 24.92 -3.7 25.3 89 -5.3 22.5
02:15 1015 29.97 844 24.92 -4 24.8 89 -5.6 21.9
02:20 1015 29.97 844 24.92 -3.8 25.1 87 -5.7 21.8
02:25 1015 29.97 844 24.92 -3.5 25.7 86 -5.6 22
02:30 1015 29.97 844 24.92 -3.5 25.8 86 -5.6 22
02:35 1015 29.97 844 24.92 -3.6 25.5 85 -5.7 21.7
02:40 1015 29.97 844 24.92 -3.8 25.1 87 -5.7 21.7
02:45 1015 29.97 844 24.92 -3.7 25.3 87 -5.6 21.9
02:50 1015 29.97 844 24.92 -3.7 25.3 86 -5.8 21.6
02:55 1015 29.97 844 24.92 -3.7 25.3 85 -5.9 21.3
03:00 1015 29.97 844 24.92 -3.8 25.2 86 -5.8 21.6
03:05 1015 29.97 844 24.92 -3.8 25.1 86 -5.9 21.4
03:10 1015 29.97 844 24.92 -3.9 25 86 -5.9 21.4
03:15 1015 29.97 844 24.92 -4 24.8 87 -5.8 21.5
03:20 1015 29.97 844 24.92 -4 24.8 87 -5.8 21.5
03:25 1015 29.97 844 24.92 -4 24.8 87 -5.9 21.5
03:30 1015 29.97 844 24.92 -4.1 24.7 87 -6 21.3
03:35 1014 29.94 844 24.92 -4 24.8 85 -6.2 20.9
03:40 1014 29.94 844 24.92 -4 24.9 84 -6.3 20.7
03:45 1014 29.94 844 24.92 -4.2 24.4 84 -6.5 20.2
03:50 1014 29.94 844 24.92 -4.5 23.9 85 -6.8 19.8
03:55 1015 29.97 844 24.92 -4.5 23.9 84 -6.9 19.6
04:00 1015 29.97 844 24.92 -4.4 24.1 82 -7 19.5
04:05 1015 29.97 844 24.92 -4.3 24.2 82 -7 19.4
04:10 1015 29.97 844 24.92 -4.3 24.3 82 -7 19.4
04:15 1015 29.97 844 24.92 -4.3 24.2 82 -6.9 19.5
04:20 1015 29.97 844 24.92 -4 24.7 80 -6.9 19.5
04:25 1015 29.97 844 24.92 -4.1 24.7 80 -7 19.5
04:30 1015 29.97 844 24.92 -4 24.7 79 -7.2 19.1
04:35 1015 29.97 844 24.92 -3.9 24.9 79 -7.1 19.2
04:40 1015 29.97 844 24.92 -4.1 24.6 79 -7.2 19
04:45 1015 29.97 844 24.92 -4.4 24.1 81 -7.2 19
04:50 1015 29.97 844 24.92 -4.7 23.5 81 -7.5 18.5
04:55 1015 29.97 844 24.92 -5 22.9 82 -7.7 18.2
05:00 1015 29.97 844 24.92 -5.1 22.8 83 -7.6 18.3
05:05 1015 29.97 844 24.92 -5 23 83 -7.5 18.5
05:10 1015 29.97 844 24.92 -4.6 23.7 80 -7.6 18.3
05:15 1015 29.97 844 24.92 -4.8 23.4 80 -7.8 18
05:20 1015 29.97 844 24.92 -5 22.9 81 -7.9 17.8
05:25 1015 29.97 844 24.92 -5.3 22.5 81 -8 17.6
05:30 1015 29.97 844 24.92 -5.2 22.6 81 -8.1 17.5
05:35 1015 29.97 844 24.92 -5.1 22.8 79 -8.1 17.4
05:40 1015 29.97 844 24.92 -5.1 22.7 80 -8.1 17.4
05:45 1015 29.97 844 24.92 -5.1 22.9 80 -8 17.6
05:50 1015 29.97 844 24.92 -5.2 22.6 81 -8.1 17.5
05:55 1015 29.97 844 24.92 -5.3 22.5 79 -8.3 17.1
06:00 1015 29.97 844 24.92 -5.2 22.6 80 -8.1 17.3
06:05 1015 29.97 844 24.92 -5.2 22.6 80 -8.2 17.3
06:10 1015 29.97 844 24.92 -5.1 22.9 79 -8.2 17.3
06:15 1015 29.97 844 24.92 -5.2 22.7 80 -8.1 17.5
06:20 1015 29.97 844 24.92 -5.3 22.5 81 -8.1 17.4
06:25 1015 29.97 844 24.92 -5.2 22.6 81 -8 17.5
06:30 1015 29.97 845 24.95 -5.2 22.7 79 -8.2 17.2
06:35 1015 29.97 845 24.95 -5.3 22.5 78 -8.5 16.8
06:40 1015 29.97 845 24.95 -5.1 22.9 79 -8.2 17.2
06:45 1015 29.97 845 24.95 -4.7 23.6 76 -8.2 17.2
06:50 1015 29.97 845 24.95 -4.3 24.3 74 -8.3 17.1
06:55 1015 29.97 845 24.95 -4.2 24.4 76 -7.9 17.8
07:00 1015 29.97 845 24.95 -4.2 24.4 76 -7.8 17.9
07:05 1015 29.97 845 24.95 -4.3 24.3 76 -7.9 17.7
07:10 1015 29.97 845 24.95 -4.2 24.4 74 -8.1 17.4
07:15 1015 29.97 845 24.95 -3.9 25 74 -7.9 17.7
07:20 1015 29.97 845 24.95 -3.4 26 73 -7.5 18.4
07:25 1015 29.97 845 24.95 -3.1 26.4 73 -7.3 18.9
07:30 1015 29.97 845 24.95 -2.9 26.7 71 -7.5 18.5
07:35 1015 29.97 845 24.95 -2.9 26.8 73 -7.1 19.3
07:40 1015 29.97 845 24.95 -2.8 26.9 73 -7.1 19.3
07:45 1015 29.97 845 24.95 -2.6 27.3 72 -7 19.4
07:50 1015 29.97 845 24.95 -2.5 27.5 72 -6.8 19.8
07:55 1015 29.97 845 24.95 -2.1 28.2 70 -6.9 19.5
08:00 1015 29.97 845 24.95 -1.9 28.6 69 -6.9 19.6
08:05 1015 29.97 845 24.95 -1.8 28.8 67 -7 19.3
08:10 1015 29.97 845 24.95 -2 28.3 70 -6.7 19.9
08:15 1015 29.97 845 24.95 -2 28.4 70 -6.9 19.6
08:20 1015 29.97 845 24.95 -1.9 28.7 67 -7.2 19.1
08:25 1015 29.97 845 24.95 -1.4 29.4 65 -7.1 19.2
08:30 1015 29.97 845 24.95 -1.1 30 67 -6.5 20.4
08:35 1015 29.97 845 24.95 -0.8 30.6 67 -6.1 20.9
08:40 1015 29.97 845 24.95 -0.2 31.6 64 -6.3 20.7
08:45 1015 29.97 845 24.95 0.2 32.3 63 -6.1 21
08:50 1015 29.97 845 24.95 1.1 34 59 -6 21.1
08:55 1015 29.97 845 24.95 2 35.5 56 -5.8 21.5
09:00 1015 29.97 845 24.95 1.8 35.2 57 -5.9 21.4
09:05 1015 29.97 845 24.95 1.6 34.8 56 -6.3 20.6
09:10 1015 29.97 845 24.95 1.5 34.7 59 -5.6 21.9
09:15 1015 29.97 845 24.95 1.6 34.8 61 -5.3 22.5
09:20 1015 29.97 845 24.95 1 33.8 64 -5 23
09:25 1015 29.97 845 24.95 1.2 34.1 63 -5 23
09:30 1016 30 845 24.95 1.8 35.2 64 -4.3 24.3
09:35 1016 30 845 24.95 2 35.6 63 -4.3 24.3
09:40 1016 30 845 24.95 1.1 33.9 66 -4.6 23.7
09:45 1016 30 845 24.95 1.2 34.1 66 -4.5 23.9
09:50 1016 30 845 24.95 0.9 33.7 70 -4 24.9
09:55 1016 30 845 24.95 0.9 33.6 73 -3.3 26
10:00 1016 30 845 24.95 1.1 34 69 -4 24.8
10:05 1016 30 845 24.95 0.6 33.2 72 -3.8 25.1
10:10 1016 30 845 24.95 1 33.7 72 -3.6 25.5
10:15 1016 30 845 24.95 1.4 34.5 69 -3.8 25.2
10:20 1016 30 845 24.95 0.6 33.1 71 -4.1 24.6
10:25 1016 30 845 24.95 1.1 34 64 -4.9 23.2
10:30 1015 29.97 845 24.95 1 33.8 69 -4.1 24.6
10:35 1015 29.97 845 24.95 1.7 35 65 -4.1 24.6
10:40 1015 29.97 845 24.95 2.9 37.2 60 -4.2 24.4
10:45 1015 29.97 845 24.95 2.5 36.5 63 -3.8 25.2
10:50 1015 29.97 845 24.95 3 37.5 60 -4.1 24.7
10:55 1015 29.97 845 24.95 3 37.5 59 -4.3 24.3
11:00 1015 29.97 844 24.92 2.5 36.6 64 -3.6 25.5
11:05 1015 29.97 844 24.92 2 35.6 67 -3.4 25.8
11:10 1015 29.97 844 24.92 2.4 36.3 65 -3.6 25.5
11:15 1015 29.97 844 24.92 3.6 38.4 60 -3.5 25.7
11:20 1015 29.97 844 24.92 2.4 36.2 64 -3.8 25.2
11:25 1015 29.97 844 24.92 2.3 36.2 65 -3.7 25.4
11:30 1015 29.97 844 24.92 3 37.4 62 -3.6 25.5
11:35 1015 29.97 844 24.92 3.2 37.7 62 -3.3 26
11:40 1015 29.97 844 24.92 2.1 35.7 65 -3.9 25
11:45 1015 29.97 844 24.92 2.6 36.7 64 -3.5 25.8
11:50 1015 29.97 844 24.92 2.7 36.9 65 -3.2 26.3
11:55 1015 29.97 844 24.92 2.8 37 64 -3.4 25.9
12:00 1015 29.97 844 24.92 3 37.4 69 -2.1 28.3
12:05 1015 29.97 844 24.92 3.7 38.7 62 -2.9 26.7
12:10 1015 29.97 844 24.92 4.6 40.2 58 -3 26.6
12:15 1015 29.97 844 24.92 4.2 39.5 62 -2.4 27.7
12:20 1015 29.97 844 24.92 3.6 38.5 65 -2.3 27.8
12:25 1015 29.97 844 24.92 3.8 38.9 61 -3 26.6
12:30 1015 29.97 844 24.92 4.8 40.6 63 -1.6 29.1
12:35 1015 29.97 844 24.92 4.5 40.1 64 -1.8 28.7
12:40 1015 29.97 844 24.92 5.4 41.8 58 -2.1 28.2
12:45 1015 29.97 844 24.92 5.4 41.7 57 -2.3 27.8
12:50 1015 29.97 844 24.92 5.8 42.5 53 -2.9 26.8
12:55 1014 29.94 844 24.92 5.8 42.5 59 -1.5 29.4
13:00 1014 29.94 844 24.92 4.7 40.4 66 -1.1 30
13:05 1014 29.94 844 24.92 4.5 40.1 62 -2.2 28.1
13:10 1014 29.94 843 24.89 5.3 41.5 54 -3.3 26.1
13:15 1014 29.94 843 24.89 6.5 43.8 54 -2.2 28.1
13:20 1014 29.94 843 24.89 6.7 44 52 -2.6 27.3
13:25 1014 29.94 843 24.89 6.2 43.2 48 -3.9 25
13:30 1014 29.94 843 24.89 7.2 44.9 46 -3.7 25.4
13:35 1014 29.94 843 24.89 7.5 45.6 44 -4 24.7
13:40 1014 29.94 843 24.89 6.7 44 43 -4.9 23.2
13:45 1014 29.94 843 24.89 7.5 45.6 42 -4.5 24
13:50 1014 29.94 843 24.89 6.9 44.4 41 -5.5 22.2
13:55 1014 29.94 843 24.89 7.8 46 42 -4.3 24.3
14:00 1014 29.94 843 24.89 8.2 46.8 45 -3.1 26.5
14:05 1014 29.94 843 24.89 7.2 44.9 44 -4.1 24.6
14:10 1014 29.94 843 24.89 7.5 45.5 44 -3.9 24.9
14:15 1013 29.91 843 24.89 7.8 46.1 40 -4.9 23.2
14:20 1013 29.91 843 24.89 9 48.2 34 -6 21.2
14:25 1013 29.91 843 24.89 9.2 48.6 32 -6.5 20.2
14:30 1013 29.91 843 24.89 8.3 47 38 -5.2 22.6
14:35 1013 29.91 842 24.86 8.7 47.6 36 -5.6 22
14:40 1013 29.91 842 24.86 8.1 46.7 37 -5.7 21.7
14:45 1013 29.91 842 24.86 8.6 47.5 38 -4.8 23.3
14:50 1013 29.91 842 24.86 8.9 48.1 38 -4.8 23.4
14:55 1013 29.91 842 24.86 9 48.3 38 -4.6 23.8
15:00 1013 29.91 842 24.86 8.5 47.4 40 -4.3 24.2
15:05 1013 29.91 842 24.86 7.8 46 41 -4.7 23.6
15:10 1013 29.91 842 24.86 8.3 47 39 -4.7 23.5
15:15 1013 29.91 842 24.86 8.7 47.7 40 -3.9 24.9
15:20 1013 29.91 842 24.86 9 48.1 38 -4.7 23.5
15:25 1013 29.91 842 24.86 8.8 47.8 40 -4 24.8
15:30 1013 29.91 842 24.86 8.4 47.1 44 -3.3 26.1
15:35 1013 29.91 842 24.86 8.3 46.9 41 -4.3 24.2
15:40 1013 29.91 842 24.86 7.4 45.2 46 -3.6 25.5
15:45 1013 29.91 842 24.86 7.2 44.9 45 -3.8 25.2
15:50 1013 29.91 842 24.86 7.3 45.2 45 -3.9 25
15:55 1013 29.91 842 24.86 7.6 45.7 46 -3.3 26.1
16:00 1012 29.88 842 24.86 7.3 45.2 48 -3 26.6
16:05 1012 29.88 842 24.86 7.7 45.8 47 -3 26.6
16:10 1012 29.88 842 24.86 7.5 45.4 46 -3.4 25.9
16:15 1012 29.88 842 24.86 7.7 45.8 48 -2.8 27
16:20 1012 29.88 842 24.86 7.8 46 39 -5.2 22.6
16:25 1012 29.88 841 24.83 7.4 45.3 39 -5.8 21.6
16:30 1012 29.88 841 24.83 7.3 45.1 38 -6 21.2
16:35 1012 29.88 841 24.83 7.4 45.3 35 -6.9 19.5
16:40 1012 29.88 841 24.83 7.4 45.2 33 -7.9 17.8
16:45 1012 29.88 841 24.83 7.3 45.2 33 -7.9 17.7
16:50 1012 29.88 841 24.83 7.4 45.3 32 -8.3 17.1
16:55 1012 29.88 841 24.83 7 44.6 34 -7.7 18.2
17:00 1012 29.88 841 24.83 6.9 44.3 36 -7.2 19
17:05 1012 29.88 841 24.83 6.9 44.4 35 -7.5 18.5
17:10 1012 29.88 841 24.83 6.8 44.2 34 -8 17.6
17:15 1012 29.88 841 24.83 6.7 44 34 -8.2 17.2
17:20 1012 29.88 841 24.83 6.7 44 35 -7.9 17.8
17:25 1012 29.88 841 24.83 6.6 43.9 35 -7.7 18.2
17:30 1012 29.88 841 24.83 6.6 43.8 36 -7.4 18.7
17:35 1012 29.88 841 24.83 6.4 43.6 37 -7.2 19
17:40 1012 29.88 841 24.83 6.3 43.4 38 -6.9 19.5
17:45 1012 29.88 841 24.83 6.1 43.1 39 -6.6 20.1
17:50 1012 29.88 841 24.83 6.1 42.9 40 -6.4 20.4
17:55 1012 29.88 841 24.83 6.1 42.9 40 -6.4 20.4
18:00 1012 29.88 841 24.83 6 42.8 39 -6.9 19.5
18:05 1012 29.88 841 24.83 6 42.7 39 -6.8 19.7
18:10 1012 29.88 841 24.83 5.9 42.6 39 -7.1 19.2
18:15 1012 29.88 841 24.83 5.9 42.6 40 -6.6 20.1
18:20 1012 29.88 841 24.83 5.8 42.5 40 -6.9 19.6
18:25 1011 29.85 841 24.83 5.7 42.3 40 -6.9 19.6
18:30 1012 29.88 841 24.83 5.7 42.2 40 -6.8 19.7
18:35 1012 29.88 841 24.83 5.6 42.1 40 -6.9 19.6
18:40 1012 29.88 841 24.83 5.6 42.1 40 -7.1 19.2
18:45 1012 29.88 841 24.83 5.5 42 40 -6.9 19.5
18:50 1012 29.88 841 24.83 5.5 41.9 40 -7 19.5
18:55 1012 29.88 841 24.83 5.4 41.8 41 -6.8 19.7
19:00 1012 29.88 841 24.83 5.3 41.6 40 -7.2 19
19:05 1012 29.88 841 24.83 5.4 41.6 40 -7 19.4
19:10 1012 29.88 841 24.83 5.3 41.6 41 -6.9 19.6
19:15 1012 29.88 841 24.83 5.2 41.4 41 -6.9 19.6
19:20 1012 29.88 841 24.83 5.1 41.2 42 -6.7 20
19:25 1012 29.88 841 24.83 5 41 43 -6.6 20.1
19:30 1012 29.88 841 24.83 4.9 40.9 42 -7 19.4
19:35 1012 29.88 841 24.83 4.9 40.9 43 -6.7 20
19:40 1012 29.88 841 24.83 4.8 40.7 43 -6.7 19.9
19:45 1012 29.88 841 24.83 4.7 40.5 45 -6.3 20.6
19:50 1012 29.88 841 24.83 4.5 40.2 45 -6.2 20.8
19:55 1012 29.88 841 24.83 4.4 39.9 47 -6 21.2
20:00 1012 29.88 841 24.83 4.4 39.9 46 -6.4 20.5
20:05 1012 29.88 841 24.83 4.4 39.9 46 -6.1 21
20:10 1012 29.88 841 24.83 4.4 40 46 -6.3 20.7
20:15 1012 29.88 841 24.83 4.5 40.2 45 -6.5 20.4
20:20 1012 29.88 841 24.83 4.5 40.1 47 -5.9 21.3
20:25 1012 29.88 841 24.83 4.2 39.6 48 -6 21.3
20:30 1012 29.88 841 24.83 4.3 39.7 46 -6.4 20.6
20:35 1012 29.88 841 24.83 4.3 39.8 48 -5.8 21.6
20:40 1012 29.88 841 24.83 4.2 39.5 47 -6.1 21
20:45 1012 29.88 841 24.83 4.3 39.8 44 -6.8 19.8
20:50 1012 29.88 841 24.83 4.5 40.1 44 -6.7 20
20:55 1012 29.88 841 24.83 4.6 40.3 43 -7.1 19.3
21:00 1012 29.88 841 24.83 4.6 40.3 42 -7.2 19
21:05 1012 29.88 841 24.83 4.5 40.1 40 -7.8 18
21:10 1012 29.88 841 24.83 4.5 40.2 40 -7.9 17.8
21:15 1012 29.88 841 24.83 4.5 40.1 39 -8.2 17.2
21:20 1012 29.88 841 24.83 4.6 40.2 39 -8.2 17.3
21:25 1012 29.88 841 24.83 4.5 40 38 -8.6 16.5
21:30 1012 29.88 841 24.83 4.6 40.2 38 -8.6 16.5
21:35 1012 29.88 841 24.83 4.5 40.1 37 -9 15.9
21:40 1012 29.88 841 24.83 4.6 40.2 36 -9.2 15.5
21:45 1012 29.88 841 24.83 4.6 40.2 37 -8.9 16
21:50 1012 29.88 841 24.83 4.5 40 37 -9 15.7
21:55 1012 29.88 841 24.83 4.4 40 36 -9.3 15.2
22:00 1011 29.85 841 24.83 4.5 40 36 -9.4 15.1
22:05 1011 29.85 841 24.83 4.4 40 37 -9.1 15.6
22:10 1011 29.85 841 24.83 4.4 39.9 36 -9.3 15.3
22:15 1011 29.85 841 24.83 4.2 39.6 37 -9.4 15.2
22:20 1011 29.85 841 24.83 4.2 39.6 37 -9.3 15.3
22:25 1011 29.85 841 24.83 4.1 39.4 37 -9.2 15.5
22:30 1011 29.85 841 24.83 4 39.2 38 -9.2 15.5
22:35 1011 29.85 841 24.83 4 39.1 39 -8.7 16.3
22:40 1011 29.85 840 24.81 3.9 39 39 -8.9 16.1
22:45 1011 29.85 841 24.83 3.8 38.8 40 -8.5 16.6
22:50 1011 29.85 840 24.81 3.7 38.7 40 -8.6 16.4
22:55 1011 29.85 840 24.81 3.8 38.8 40 -8.6 16.5
23:00 1011 29.85 840 24.81 3.8 38.8 40 -8.6 16.5
23:05 1011 29.85 840 24.81 3.7 38.7 40 -8.7 16.3
23:10 1011 29.85 841 24.83 3.7 38.7 40 -8.6 16.6
23:15 1011 29.85 841 24.83 3.7 38.6 41 -8.5 16.8
23:20 1011 29.85 840 24.81 3.7 38.6 41 -8.5 16.6
23:25 1011 29.85 840 24.81 3.6 38.4 42 -8.2 17.2
23:30 1011 29.85 840 24.81 3.5 38.2 41 -8.5 16.8
23:35 1011 29.85 840 24.81 3.4 38.2 42 -8.3 17
23:40 1011 29.85 840 24.81 3.4 38.1 42 -8.4 17
23:45 1011 29.85 840 24.81 3.4 38.1 42 -8.3 17.1
23:50 1011 29.85 840 24.81 3.3 38 42 -8.3 17.1
23:55 1011 29.85 840 24.81 3.2 37.8 43 -8.1 17.4
24:00 1011 29.85 840 24.81 3.1 37.7 43 -8.2 17.3